sensor_id;sensor_type;location;lat;lon;timestamp;P1;durP1;ratioP1;P2;durP2;ratioP2
60665;SDS011;59128;44.642;21.188;2023-03-14T00:00:10;47.05;;;28.23;;
60665;SDS011;59128;44.642;21.188;2023-03-14T00:02:37;25.17;;;15.40;;
60665;SDS011;59128;44.642;21.188;2023-03-14T00:05:04;42.88;;;26.58;;
60665;SDS011;59128;44.642;21.188;2023-03-14T00:07:38;23.48;;;13.25;;
60665;SDS011;59128;44.642;21.188;2023-03-14T00:10:06;31.83;;;19.23;;
60665;SDS011;59128;44.642;21.188;2023-03-14T00:12:32;19.90;;;12.53;;
60665;SDS011;59128;44.642;21.188;2023-03-14T00:14:58;23.55;;;15.55;;
60665;SDS011;59128;44.642;21.188;2023-03-14T00:17:29;30.65;;;17.90;;
60665;SDS011;59128;44.642;21.188;2023-03-14T00:19:55;24.83;;;15.65;;
60665;SDS011;59128;44.642;21.188;2023-03-14T00:22:21;33.05;;;19.33;;
60665;SDS011;59128;44.642;21.188;2023-03-14T00:24:48;29.25;;;17.13;;
60665;SDS011;59128;44.642;21.188;2023-03-14T00:27:14;20.50;;;13.90;;
60665;SDS011;59128;44.642;21.188;2023-03-14T00:29:40;21.88;;;13.95;;
60665;SDS011;59128;44.642;21.188;2023-03-14T00:32:08;18.48;;;14.07;;
60665;SDS011;59128;44.642;21.188;2023-03-14T00:34:34;14.63;;;11.02;;
60665;SDS011;59128;44.642;21.188;2023-03-14T00:36:59;18.40;;;13.13;;
60665;SDS011;59128;44.642;21.188;2023-03-14T00:39:25;15.18;;;10.77;;
60665;SDS011;59128;44.642;21.188;2023-03-14T00:41:51;11.70;;;8.80;;
60665;SDS011;59128;44.642;21.188;2023-03-14T00:44:17;13.93;;;10.00;;
60665;SDS011;59128;44.642;21.188;2023-03-14T00:46:43;10.15;;;8.18;;
60665;SDS011;59128;44.642;21.188;2023-03-14T00:49:09;10.70;;;8.15;;
60665;SDS011;59128;44.642;21.188;2023-03-14T00:51:35;10.75;;;8.13;;
60665;SDS011;59128;44.642;21.188;2023-03-14T00:54:01;11.68;;;8.95;;
60665;SDS011;59128;44.642;21.188;2023-03-14T00:56:27;12.13;;;8.82;;
60665;SDS011;59128;44.642;21.188;2023-03-14T00:58:54;12.03;;;9.37;;
60665;SDS011;59128;44.642;21.188;2023-03-14T01:01:21;8.65;;;6.60;;
60665;SDS011;59128;44.642;21.188;2023-03-14T01:03:47;11.00;;;8.90;;
60665;SDS011;59128;44.642;21.188;2023-03-14T01:06:15;10.15;;;7.78;;
60665;SDS011;59128;44.642;21.188;2023-03-14T01:08:41;13.90;;;10.60;;
60665;SDS011;59128;44.642;21.188;2023-03-14T01:11:11;11.15;;;7.95;;
60665;SDS011;59128;44.642;21.188;2023-03-14T01:13:37;11.65;;;8.68;;
60665;SDS011;59128;44.642;21.188;2023-03-14T01:16:04;10.25;;;8.32;;
60665;SDS011;59128;44.642;21.188;2023-03-14T01:18:31;11.55;;;8.93;;
60665;SDS011;59128;44.642;21.188;2023-03-14T01:20:58;14.20;;;11.97;;
60665;SDS011;59128;44.642;21.188;2023-03-14T01:23:24;11.02;;;9.27;;
60665;SDS011;59128;44.642;21.188;2023-03-14T01:25:50;13.50;;;10.27;;
60665;SDS011;59128;44.642;21.188;2023-03-14T01:28:16;10.80;;;9.25;;
60665;SDS011;59128;44.642;21.188;2023-03-14T01:30:42;12.90;;;10.40;;
60665;SDS011;59128;44.642;21.188;2023-03-14T01:33:08;12.00;;;9.50;;
60665;SDS011;59128;44.642;21.188;2023-03-14T01:35:34;13.50;;;10.38;;
60665;SDS011;59128;44.642;21.188;2023-03-14T01:38:00;13.23;;;10.93;;
60665;SDS011;59128;44.642;21.188;2023-03-14T01:40:26;11.43;;;10.23;;
60665;SDS011;59128;44.642;21.188;2023-03-14T01:42:56;10.85;;;9.00;;
60665;SDS011;59128;44.642;21.188;2023-03-14T01:48:07;11.83;;;8.40;;
60665;SDS011;59128;44.642;21.188;2023-03-14T01:50:33;10.20;;;8.18;;
60665;SDS011;59128;44.642;21.188;2023-03-14T01:52:59;10.75;;;8.82;;
60665;SDS011;59128;44.642;21.188;2023-03-14T01:55:25;11.55;;;10.00;;
60665;SDS011;59128;44.642;21.188;2023-03-14T01:57:52;10.48;;;8.48;;
60665;SDS011;59128;44.642;21.188;2023-03-14T02:00:20;8.60;;;7.67;;
60665;SDS011;59128;44.642;21.188;2023-03-14T02:02:48;8.63;;;7.63;;
60665;SDS011;59128;44.642;21.188;2023-03-14T02:05:16;7.78;;;6.97;;
60665;SDS011;59128;44.642;21.188;2023-03-14T02:07:46;7.43;;;6.50;;
60665;SDS011;59128;44.642;21.188;2023-03-14T02:10:14;7.60;;;6.35;;
60665;SDS011;59128;44.642;21.188;2023-03-14T02:12:43;8.18;;;6.90;;
60665;SDS011;59128;44.642;21.188;2023-03-14T02:15:10;8.55;;;7.55;;
60665;SDS011;59128;44.642;21.188;2023-03-14T02:17:36;9.55;;;7.78;;
60665;SDS011;59128;44.642;21.188;2023-03-14T02:20:06;10.27;;;7.28;;
60665;SDS011;59128;44.642;21.188;2023-03-14T02:22:37;9.70;;;8.02;;
60665;SDS011;59128;44.642;21.188;2023-03-14T02:25:17;11.60;;;9.25;;
60665;SDS011;59128;44.642;21.188;2023-03-14T02:27:46;11.82;;;9.07;;
60665;SDS011;59128;44.642;21.188;2023-03-14T02:30:22;13.40;;;9.82;;
60665;SDS011;59128;44.642;21.188;2023-03-14T02:33:10;18.35;;;13.43;;
60665;SDS011;59128;44.642;21.188;2023-03-14T02:35:36;14.60;;;10.30;;
60665;SDS011;59128;44.642;21.188;2023-03-14T02:38:07;12.98;;;9.63;;
60665;SDS011;59128;44.642;21.188;2023-03-14T02:40:36;12.60;;;9.93;;
60665;SDS011;59128;44.642;21.188;2023-03-14T02:43:02;11.02;;;9.35;;
60665;SDS011;59128;44.642;21.188;2023-03-14T02:47:59;10.82;;;8.73;;
60665;SDS011;59128;44.642;21.188;2023-03-14T02:50:26;13.32;;;10.07;;
60665;SDS011;59128;44.642;21.188;2023-03-14T02:52:54;7.60;;;6.80;;
60665;SDS011;59128;44.642;21.188;2023-03-14T02:55:21;10.97;;;9.10;;
60665;SDS011;59128;44.642;21.188;2023-03-14T02:57:47;11.52;;;9.10;;
60665;SDS011;59128;44.642;21.188;2023-03-14T03:00:13;11.53;;;8.67;;
60665;SDS011;59128;44.642;21.188;2023-03-14T03:05:15;10.43;;;8.50;;
60665;SDS011;59128;44.642;21.188;2023-03-14T03:07:41;14.45;;;9.45;;
60665;SDS011;59128;44.642;21.188;2023-03-14T03:10:07;12.05;;;8.85;;
60665;SDS011;59128;44.642;21.188;2023-03-14T03:12:34;11.82;;;8.98;;
60665;SDS011;59128;44.642;21.188;2023-03-14T03:15:00;12.73;;;9.32;;
60665;SDS011;59128;44.642;21.188;2023-03-14T03:17:26;9.55;;;6.88;;
60665;SDS011;59128;44.642;21.188;2023-03-14T03:19:52;12.60;;;8.98;;
60665;SDS011;59128;44.642;21.188;2023-03-14T03:22:18;12.60;;;9.45;;
60665;SDS011;59128;44.642;21.188;2023-03-14T03:24:44;15.10;;;11.38;;
60665;SDS011;59128;44.642;21.188;2023-03-14T03:27:10;13.90;;;10.60;;
60665;SDS011;59128;44.642;21.188;2023-03-14T03:29:36;13.33;;;9.80;;
60665;SDS011;59128;44.642;21.188;2023-03-14T03:32:02;12.25;;;9.00;;
60665;SDS011;59128;44.642;21.188;2023-03-14T03:34:28;13.23;;;9.45;;
60665;SDS011;59128;44.642;21.188;2023-03-14T03:36:57;12.87;;;10.23;;
60665;SDS011;59128;44.642;21.188;2023-03-14T03:39:23;12.68;;;10.00;;
60665;SDS011;59128;44.642;21.188;2023-03-14T03:41:49;13.48;;;9.23;;
60665;SDS011;59128;44.642;21.188;2023-03-14T03:44:15;12.23;;;9.13;;
60665;SDS011;59128;44.642;21.188;2023-03-14T03:46:41;13.18;;;9.82;;
60665;SDS011;59128;44.642;21.188;2023-03-14T03:49:07;15.70;;;10.32;;
60665;SDS011;59128;44.642;21.188;2023-03-14T03:51:35;16.33;;;11.80;;
60665;SDS011;59128;44.642;21.188;2023-03-14T03:54:01;15.48;;;11.35;;
60665;SDS011;59128;44.642;21.188;2023-03-14T03:56:27;11.30;;;9.02;;
60665;SDS011;59128;44.642;21.188;2023-03-14T03:58:53;20.52;;;12.63;;
60665;SDS011;59128;44.642;21.188;2023-03-14T04:01:19;13.60;;;9.20;;
60665;SDS011;59128;44.642;21.188;2023-03-14T04:03:45;15.93;;;11.38;;
60665;SDS011;59128;44.642;21.188;2023-03-14T04:06:12;12.38;;;9.15;;
60665;SDS011;59128;44.642;21.188;2023-03-14T04:08:38;12.73;;;9.00;;
60665;SDS011;59128;44.642;21.188;2023-03-14T04:11:05;12.80;;;8.88;;
60665;SDS011;59128;44.642;21.188;2023-03-14T04:13:32;16.47;;;11.47;;
60665;SDS011;59128;44.642;21.188;2023-03-14T04:15:58;13.75;;;9.38;;
60665;SDS011;59128;44.642;21.188;2023-03-14T04:18:24;13.57;;;10.50;;
60665;SDS011;59128;44.642;21.188;2023-03-14T04:20:51;13.85;;;9.93;;
60665;SDS011;59128;44.642;21.188;2023-03-14T04:23:17;17.88;;;13.25;;
60665;SDS011;59128;44.642;21.188;2023-03-14T04:25:43;12.43;;;9.60;;
60665;SDS011;59128;44.642;21.188;2023-03-14T04:28:09;18.58;;;13.30;;
60665;SDS011;59128;44.642;21.188;2023-03-14T04:30:35;19.88;;;13.77;;
60665;SDS011;59128;44.642;21.188;2023-03-14T04:33:01;13.15;;;10.00;;
60665;SDS011;59128;44.642;21.188;2023-03-14T04:35:29;16.80;;;11.43;;
60665;SDS011;59128;44.642;21.188;2023-03-14T04:37:56;15.20;;;11.27;;
60665;SDS011;59128;44.642;21.188;2023-03-14T04:40:22;12.38;;;9.77;;
60665;SDS011;59128;44.642;21.188;2023-03-14T04:42:48;13.13;;;10.30;;
60665;SDS011;59128;44.642;21.188;2023-03-14T04:45:14;13.50;;;9.93;;
60665;SDS011;59128;44.642;21.188;2023-03-14T04:47:40;12.98;;;10.25;;
60665;SDS011;59128;44.642;21.188;2023-03-14T04:50:06;7.93;;;7.07;;
60665;SDS011;59128;44.642;21.188;2023-03-14T04:52:32;8.20;;;7.15;;
60665;SDS011;59128;44.642;21.188;2023-03-14T04:54:58;7.75;;;6.85;;
60665;SDS011;59128;44.642;21.188;2023-03-14T04:57:24;7.70;;;6.32;;
60665;SDS011;59128;44.642;21.188;2023-03-14T04:59:50;8.68;;;7.32;;
60665;SDS011;59128;44.642;21.188;2023-03-14T05:02:16;10.82;;;7.88;;
60665;SDS011;59128;44.642;21.188;2023-03-14T05:04:42;9.17;;;8.03;;
60665;SDS011;59128;44.642;21.188;2023-03-14T05:07:08;10.73;;;8.98;;
60665;SDS011;59128;44.642;21.188;2023-03-14T05:09:34;11.63;;;8.88;;
60665;SDS011;59128;44.642;21.188;2023-03-14T05:12:00;8.80;;;7.63;;
60665;SDS011;59128;44.642;21.188;2023-03-14T05:14:26;10.38;;;9.23;;
60665;SDS011;59128;44.642;21.188;2023-03-14T05:16:52;7.95;;;6.32;;
60665;SDS011;59128;44.642;21.188;2023-03-14T05:19:18;13.00;;;10.63;;
60665;SDS011;59128;44.642;21.188;2023-03-14T05:21:44;9.90;;;7.90;;
60665;SDS011;59128;44.642;21.188;2023-03-14T05:24:10;9.68;;;7.50;;
60665;SDS011;59128;44.642;21.188;2023-03-14T05:26:36;10.87;;;8.57;;
60665;SDS011;59128;44.642;21.188;2023-03-14T05:29:02;11.25;;;9.10;;
60665;SDS011;59128;44.642;21.188;2023-03-14T05:31:28;9.73;;;6.97;;
60665;SDS011;59128;44.642;21.188;2023-03-14T05:33:54;10.13;;;8.63;;
60665;SDS011;59128;44.642;21.188;2023-03-14T05:36:20;9.02;;;8.13;;
60665;SDS011;59128;44.642;21.188;2023-03-14T05:38:46;13.00;;;9.05;;
60665;SDS011;59128;44.642;21.188;2023-03-14T05:41:12;9.50;;;7.72;;
60665;SDS011;59128;44.642;21.188;2023-03-14T05:43:38;10.27;;;7.90;;
60665;SDS011;59128;44.642;21.188;2023-03-14T05:46:04;9.80;;;8.80;;
60665;SDS011;59128;44.642;21.188;2023-03-14T05:48:31;16.60;;;13.80;;
60665;SDS011;59128;44.642;21.188;2023-03-14T05:50:57;13.75;;;11.82;;
60665;SDS011;59128;44.642;21.188;2023-03-14T05:53:24;15.75;;;11.85;;
60665;SDS011;59128;44.642;21.188;2023-03-14T05:55:51;14.30;;;10.90;;
60665;SDS011;59128;44.642;21.188;2023-03-14T05:58:17;12.15;;;10.30;;
60665;SDS011;59128;44.642;21.188;2023-03-14T06:00:43;9.05;;;7.60;;
60665;SDS011;59128;44.642;21.188;2023-03-14T06:03:09;10.48;;;8.55;;
60665;SDS011;59128;44.642;21.188;2023-03-14T06:05:35;10.82;;;9.07;;
60665;SDS011;59128;44.642;21.188;2023-03-14T06:08:01;11.85;;;9.27;;
60665;SDS011;59128;44.642;21.188;2023-03-14T06:10:27;8.00;;;7.00;;
60665;SDS011;59128;44.642;21.188;2023-03-14T06:12:53;8.95;;;7.90;;
60665;SDS011;59128;44.642;21.188;2023-03-14T06:15:20;9.35;;;6.90;;
60665;SDS011;59128;44.642;21.188;2023-03-14T06:17:46;6.90;;;6.13;;
60665;SDS011;59128;44.642;21.188;2023-03-14T06:20:12;7.85;;;6.28;;
60665;SDS011;59128;44.642;21.188;2023-03-14T06:22:38;8.52;;;7.25;;
60665;SDS011;59128;44.642;21.188;2023-03-14T06:25:05;9.45;;;6.80;;
60665;SDS011;59128;44.642;21.188;2023-03-14T06:27:31;9.07;;;7.22;;
60665;SDS011;59128;44.642;21.188;2023-03-14T06:29:57;9.03;;;7.37;;
60665;SDS011;59128;44.642;21.188;2023-03-14T06:32:23;12.30;;;9.68;;
60665;SDS011;59128;44.642;21.188;2023-03-14T06:34:49;11.07;;;7.78;;
60665;SDS011;59128;44.642;21.188;2023-03-14T06:37:15;9.85;;;7.82;;
60665;SDS011;59128;44.642;21.188;2023-03-14T06:39:41;9.02;;;7.07;;
60665;SDS011;59128;44.642;21.188;2023-03-14T06:42:09;9.07;;;7.60;;
60665;SDS011;59128;44.642;21.188;2023-03-14T06:44:35;15.85;;;11.65;;
60665;SDS011;59128;44.642;21.188;2023-03-14T06:47:01;11.75;;;9.60;;
60665;SDS011;59128;44.642;21.188;2023-03-14T06:49:27;11.70;;;8.97;;
60665;SDS011;59128;44.642;21.188;2023-03-14T06:51:53;7.97;;;6.97;;
60665;SDS011;59128;44.642;21.188;2023-03-14T06:54:19;7.72;;;6.93;;
60665;SDS011;59128;44.642;21.188;2023-03-14T06:56:45;7.28;;;6.50;;
60665;SDS011;59128;44.642;21.188;2023-03-14T06:59:12;7.07;;;5.88;;
60665;SDS011;59128;44.642;21.188;2023-03-14T07:01:38;9.45;;;7.15;;
60665;SDS011;59128;44.642;21.188;2023-03-14T07:04:05;9.23;;;5.90;;
60665;SDS011;59128;44.642;21.188;2023-03-14T07:06:31;8.70;;;5.55;;
60665;SDS011;59128;44.642;21.188;2023-03-14T07:08:57;5.22;;;4.78;;
60665;SDS011;59128;44.642;21.188;2023-03-14T07:11:23;7.75;;;5.95;;
60665;SDS011;59128;44.642;21.188;2023-03-14T07:13:49;5.65;;;4.85;;
60665;SDS011;59128;44.642;21.188;2023-03-14T07:16:15;5.50;;;4.75;;
60665;SDS011;59128;44.642;21.188;2023-03-14T07:18:41;7.68;;;5.88;;
60665;SDS011;59128;44.642;21.188;2023-03-14T07:21:08;6.32;;;5.22;;
60665;SDS011;59128;44.642;21.188;2023-03-14T07:23:34;11.13;;;7.15;;
60665;SDS011;59128;44.642;21.188;2023-03-14T07:26:00;7.28;;;5.97;;
60665;SDS011;59128;44.642;21.188;2023-03-14T07:28:27;15.25;;;9.18;;
60665;SDS011;59128;44.642;21.188;2023-03-14T07:30:53;7.78;;;6.32;;
60665;SDS011;59128;44.642;21.188;2023-03-14T07:33:19;8.40;;;6.10;;
60665;SDS011;59128;44.642;21.188;2023-03-14T07:35:49;6.70;;;5.50;;
60665;SDS011;59128;44.642;21.188;2023-03-14T07:38:16;7.40;;;6.55;;
60665;SDS011;59128;44.642;21.188;2023-03-14T07:40:42;10.98;;;7.60;;
60665;SDS011;59128;44.642;21.188;2023-03-14T07:43:08;6.50;;;5.20;;
60665;SDS011;59128;44.642;21.188;2023-03-14T07:45:34;10.70;;;7.20;;
60665;SDS011;59128;44.642;21.188;2023-03-14T07:48:00;7.25;;;5.80;;
60665;SDS011;59128;44.642;21.188;2023-03-14T07:50:27;6.15;;;4.43;;
60665;SDS011;59128;44.642;21.188;2023-03-14T07:52:53;6.93;;;4.78;;
60665;SDS011;59128;44.642;21.188;2023-03-14T07:55:20;6.28;;;5.10;;
60665;SDS011;59128;44.642;21.188;2023-03-14T07:57:46;5.10;;;3.97;;
60665;SDS011;59128;44.642;21.188;2023-03-14T08:00:12;4.78;;;4.05;;
60665;SDS011;59128;44.642;21.188;2023-03-14T08:02:39;8.65;;;6.80;;
60665;SDS011;59128;44.642;21.188;2023-03-14T08:05:05;7.33;;;5.73;;
60665;SDS011;59128;44.642;21.188;2023-03-14T08:07:31;7.88;;;5.68;;
60665;SDS011;59128;44.642;21.188;2023-03-14T08:09:57;5.95;;;4.82;;
60665;SDS011;59128;44.642;21.188;2023-03-14T08:12:23;5.40;;;3.88;;
60665;SDS011;59128;44.642;21.188;2023-03-14T08:14:49;4.10;;;3.70;;
60665;SDS011;59128;44.642;21.188;2023-03-14T08:17:15;5.70;;;4.28;;
60665;SDS011;59128;44.642;21.188;2023-03-14T08:19:41;3.22;;;2.92;;
60665;SDS011;59128;44.642;21.188;2023-03-14T08:22:07;3.60;;;3.30;;
60665;SDS011;59128;44.642;21.188;2023-03-14T08:24:33;5.07;;;4.22;;
60665;SDS011;59128;44.642;21.188;2023-03-14T08:26:59;7.25;;;3.40;;
60665;SDS011;59128;44.642;21.188;2023-03-14T08:29:25;4.03;;;3.63;;
60665;SDS011;59128;44.642;21.188;2023-03-14T08:31:51;4.28;;;3.75;;
60665;SDS011;59128;44.642;21.188;2023-03-14T08:34:19;3.63;;;3.20;;
60665;SDS011;59128;44.642;21.188;2023-03-14T08:36:45;5.20;;;3.72;;
60665;SDS011;59128;44.642;21.188;2023-03-14T08:39:11;3.47;;;3.05;;
60665;SDS011;59128;44.642;21.188;2023-03-14T08:41:37;7.13;;;5.15;;
60665;SDS011;59128;44.642;21.188;2023-03-14T08:44:09;5.07;;;3.80;;
60665;SDS011;59128;44.642;21.188;2023-03-14T08:46:36;4.65;;;3.40;;
60665;SDS011;59128;44.642;21.188;2023-03-14T08:49:02;8.50;;;4.57;;
60665;SDS011;59128;44.642;21.188;2023-03-14T08:51:28;8.50;;;6.47;;
60665;SDS011;59128;44.642;21.188;2023-03-14T08:53:54;11.13;;;7.25;;
60665;SDS011;59128;44.642;21.188;2023-03-14T08:56:21;7.18;;;4.75;;
60665;SDS011;59128;44.642;21.188;2023-03-14T08:58:46;10.27;;;7.82;;
60665;SDS011;59128;44.642;21.188;2023-03-14T09:01:12;4.78;;;3.97;;
60665;SDS011;59128;44.642;21.188;2023-03-14T09:03:38;9.02;;;7.03;;
60665;SDS011;59128;44.642;21.188;2023-03-14T09:06:05;4.63;;;4.03;;
60665;SDS011;59128;44.642;21.188;2023-03-14T09:08:31;14.18;;;10.23;;
60665;SDS011;59128;44.642;21.188;2023-03-14T09:10:58;14.32;;;9.82;;
60665;SDS011;59128;44.642;21.188;2023-03-14T09:13:24;19.65;;;13.45;;
60665;SDS011;59128;44.642;21.188;2023-03-14T09:15:54;10.68;;;7.32;;
60665;SDS011;59128;44.642;21.188;2023-03-14T09:18:20;8.73;;;6.53;;
60665;SDS011;59128;44.642;21.188;2023-03-14T09:20:46;13.77;;;10.88;;
60665;SDS011;59128;44.642;21.188;2023-03-14T09:23:12;9.23;;;7.35;;
60665;SDS011;59128;44.642;21.188;2023-03-14T09:25:38;4.65;;;4.10;;
60665;SDS011;59128;44.642;21.188;2023-03-14T09:28:04;5.63;;;3.90;;
60665;SDS011;59128;44.642;21.188;2023-03-14T09:30:31;3.85;;;2.90;;
60665;SDS011;59128;44.642;21.188;2023-03-14T09:32:57;6.22;;;4.22;;
60665;SDS011;59128;44.642;21.188;2023-03-14T09:35:23;4.53;;;3.42;;
60665;SDS011;59128;44.642;21.188;2023-03-14T09:37:49;12.68;;;9.90;;
60665;SDS011;59128;44.642;21.188;2023-03-14T09:40:16;7.07;;;4.25;;
60665;SDS011;59128;44.642;21.188;2023-03-14T09:42:43;8.30;;;5.45;;
60665;SDS011;59128;44.642;21.188;2023-03-14T09:45:54;9.05;;;4.57;;
60665;SDS011;59128;44.642;21.188;2023-03-14T09:47:56;5.18;;;3.08;;
60665;SDS011;59128;44.642;21.188;2023-03-14T09:50:22;3.80;;;2.70;;
60665;SDS011;59128;44.642;21.188;2023-03-14T09:52:49;4.45;;;2.90;;
60665;SDS011;59128;44.642;21.188;2023-03-14T09:55:21;5.03;;;3.40;;
60665;SDS011;59128;44.642;21.188;2023-03-14T09:57:48;4.15;;;3.15;;
60665;SDS011;59128;44.642;21.188;2023-03-14T10:00:16;4.05;;;3.42;;
60665;SDS011;59128;44.642;21.188;2023-03-14T10:02:45;7.00;;;5.28;;
60665;SDS011;59128;44.642;21.188;2023-03-14T10:05:16;7.85;;;5.05;;
60665;SDS011;59128;44.642;21.188;2023-03-14T10:07:42;10.10;;;6.00;;
60665;SDS011;59128;44.642;21.188;2023-03-14T10:10:10;14.18;;;9.93;;
60665;SDS011;59128;44.642;21.188;2023-03-14T10:12:37;8.60;;;5.35;;
60665;SDS011;59128;44.642;21.188;2023-03-14T10:15:08;9.98;;;7.40;;
60665;SDS011;59128;44.642;21.188;2023-03-14T10:17:39;13.07;;;9.35;;
60665;SDS011;59128;44.642;21.188;2023-03-14T10:20:05;22.30;;;13.15;;
60665;SDS011;59128;44.642;21.188;2023-03-14T10:22:31;12.65;;;8.90;;
60665;SDS011;59128;44.642;21.188;2023-03-14T10:25:01;12.27;;;7.85;;
60665;SDS011;59128;44.642;21.188;2023-03-14T10:27:29;6.75;;;4.97;;
60665;SDS011;59128;44.642;21.188;2023-03-14T10:29:57;14.82;;;9.15;;
60665;SDS011;59128;44.642;21.188;2023-03-14T10:32:28;10.70;;;6.07;;
60665;SDS011;59128;44.642;21.188;2023-03-14T10:37:50;10.00;;;7.05;;
60665;SDS011;59128;44.642;21.188;2023-03-14T10:40:16;29.15;;;16.88;;
60665;SDS011;59128;44.642;21.188;2023-03-14T10:42:43;32.63;;;19.55;;
60665;SDS011;59128;44.642;21.188;2023-03-14T10:47:50;5.07;;;4.10;;
60665;SDS011;59128;44.642;21.188;2023-03-14T10:52:51;7.22;;;5.68;;
60665;SDS011;59128;44.642;21.188;2023-03-14T10:55:18;11.32;;;7.25;;
60665;SDS011;59128;44.642;21.188;2023-03-14T10:57:44;14.45;;;9.85;;
60665;SDS011;59128;44.642;21.188;2023-03-14T11:07:44;14.70;;;10.05;;
60665;SDS011;59128;44.642;21.188;2023-03-14T11:12:39;23.02;;;15.15;;
60665;SDS011;59128;44.642;21.188;2023-03-14T11:15:28;4.88;;;3.67;;
60665;SDS011;59128;44.642;21.188;2023-03-14T11:23:20;14.00;;;9.00;;
60665;SDS011;59128;44.642;21.188;2023-03-14T11:28:17;7.38;;;5.18;;
60665;SDS011;59128;44.642;21.188;2023-03-14T11:30:51;7.45;;;5.07;;
60665;SDS011;59128;44.642;21.188;2023-03-14T11:33:21;24.70;;;16.55;;
60665;SDS011;59128;44.642;21.188;2023-03-14T11:38:28;6.35;;;4.75;;
60665;SDS011;59128;44.642;21.188;2023-03-14T11:40:56;18.20;;;12.48;;
60665;SDS011;59128;44.642;21.188;2023-03-14T11:45:53;5.78;;;3.88;;
60665;SDS011;59128;44.642;21.188;2023-03-14T11:48:34;9.13;;;6.65;;
60665;SDS011;59128;44.642;21.188;2023-03-14T11:51:02;5.57;;;3.35;;
60665;SDS011;59128;44.642;21.188;2023-03-14T11:56:11;4.47;;;3.53;;
60665;SDS011;59128;44.642;21.188;2023-03-14T11:58:38;9.52;;;6.30;;
60665;SDS011;59128;44.642;21.188;2023-03-14T12:01:10;7.20;;;4.70;;
60665;SDS011;59128;44.642;21.188;2023-03-14T12:03:42;7.97;;;6.35;;
60665;SDS011;59128;44.642;21.188;2023-03-14T12:11:17;16.40;;;14.70;;
60665;SDS011;59128;44.642;21.188;2023-03-14T12:13:46;9.18;;;6.95;;
60665;SDS011;59128;44.642;21.188;2023-03-14T12:18:51;8.68;;;6.43;;
60665;SDS011;59128;44.642;21.188;2023-03-14T12:21:17;8.85;;;7.43;;
60665;SDS011;59128;44.642;21.188;2023-03-14T12:26:17;11.70;;;8.18;;
60665;SDS011;59128;44.642;21.188;2023-03-14T12:28:44;16.40;;;11.20;;
60665;SDS011;59128;44.642;21.188;2023-03-14T12:34:03;14.98;;;10.82;;
60665;SDS011;59128;44.642;21.188;2023-03-14T12:36:48;8.07;;;5.50;;
60665;SDS011;59128;44.642;21.188;2023-03-14T12:41:51;20.00;;;13.40;;
60665;SDS011;59128;44.642;21.188;2023-03-14T12:46:59;9.40;;;5.38;;
60665;SDS011;59128;44.642;21.188;2023-03-14T12:49:29;6.57;;;4.82;;
60665;SDS011;59128;44.642;21.188;2023-03-14T12:51:59;6.65;;;5.13;;
60665;SDS011;59128;44.642;21.188;2023-03-14T12:59:45;15.32;;;9.77;;
60665;SDS011;59128;44.642;21.188;2023-03-14T13:02:23;9.05;;;5.75;;
60665;SDS011;59128;44.642;21.188;2023-03-14T13:09:52;13.68;;;9.18;;
60665;SDS011;59128;44.642;21.188;2023-03-14T13:12:22;17.63;;;12.45;;
60665;SDS011;59128;44.642;21.188;2023-03-14T13:14:49;16.63;;;12.57;;
60665;SDS011;59128;44.642;21.188;2023-03-14T13:17:22;21.45;;;8.88;;
60665;SDS011;59128;44.642;21.188;2023-03-14T13:19:50;17.00;;;12.57;;
60665;SDS011;59128;44.642;21.188;2023-03-14T13:22:20;24.83;;;15.98;;
60665;SDS011;59128;44.642;21.188;2023-03-14T13:24:47;18.40;;;12.57;;
60665;SDS011;59128;44.642;21.188;2023-03-14T13:27:17;15.40;;;10.55;;
60665;SDS011;59128;44.642;21.188;2023-03-14T13:29:44;12.45;;;7.80;;
60665;SDS011;59128;44.642;21.188;2023-03-14T13:32:16;15.85;;;11.50;;
60665;SDS011;59128;44.642;21.188;2023-03-14T13:34:42;17.70;;;13.95;;
60665;SDS011;59128;44.642;21.188;2023-03-14T13:37:14;10.40;;;6.57;;
60665;SDS011;59128;44.642;21.188;2023-03-14T13:39:41;8.45;;;5.40;;
60665;SDS011;59128;44.642;21.188;2023-03-14T13:42:10;8.75;;;5.72;;
60665;SDS011;59128;44.642;21.188;2023-03-14T13:44:39;13.60;;;8.95;;
60665;SDS011;59128;44.642;21.188;2023-03-14T13:47:09;11.63;;;8.90;;
60665;SDS011;59128;44.642;21.188;2023-03-14T13:49:35;17.70;;;11.40;;
60665;SDS011;59128;44.642;21.188;2023-03-14T13:52:03;17.75;;;11.25;;
60665;SDS011;59128;44.642;21.188;2023-03-14T13:54:29;13.93;;;8.70;;
60665;SDS011;59128;44.642;21.188;2023-03-14T13:57:03;17.05;;;11.43;;
60665;SDS011;59128;44.642;21.188;2023-03-14T13:59:33;14.25;;;10.48;;
60665;SDS011;59128;44.642;21.188;2023-03-14T14:02:00;18.42;;;12.27;;
60665;SDS011;59128;44.642;21.188;2023-03-14T14:04:26;16.50;;;11.32;;
60665;SDS011;59128;44.642;21.188;2023-03-14T14:06:55;14.70;;;11.20;;
60665;SDS011;59128;44.642;21.188;2023-03-14T14:09:24;16.58;;;12.80;;
60665;SDS011;59128;44.642;21.188;2023-03-14T14:14:25;11.82;;;8.70;;
60665;SDS011;59128;44.642;21.188;2023-03-14T14:16:53;10.48;;;7.57;;
60665;SDS011;59128;44.642;21.188;2023-03-14T14:19:20;12.70;;;9.77;;
60665;SDS011;59128;44.642;21.188;2023-03-14T14:21:47;10.18;;;8.27;;
60665;SDS011;59128;44.642;21.188;2023-03-14T14:24:14;7.20;;;4.80;;
60665;SDS011;59128;44.642;21.188;2023-03-14T14:26:50;8.57;;;6.38;;
60665;SDS011;59128;44.642;21.188;2023-03-14T14:29:22;8.88;;;6.00;;
60665;SDS011;59128;44.642;21.188;2023-03-14T14:31:58;7.70;;;5.20;;
60665;SDS011;59128;44.642;21.188;2023-03-14T14:34:24;8.15;;;5.95;;
60665;SDS011;59128;44.642;21.188;2023-03-14T14:36:52;7.97;;;5.57;;
60665;SDS011;59128;44.642;21.188;2023-03-14T14:39:23;12.38;;;9.23;;
60665;SDS011;59128;44.642;21.188;2023-03-14T14:41:50;7.70;;;5.97;;
60665;SDS011;59128;44.642;21.188;2023-03-14T14:44:17;9.35;;;7.03;;
60665;SDS011;59128;44.642;21.188;2023-03-14T14:46:44;8.77;;;6.25;;
60665;SDS011;59128;44.642;21.188;2023-03-14T14:49:11;11.35;;;6.00;;
60665;SDS011;59128;44.642;21.188;2023-03-14T14:51:40;8.98;;;6.78;;
60665;SDS011;59128;44.642;21.188;2023-03-14T14:54:11;9.48;;;6.40;;
60665;SDS011;59128;44.642;21.188;2023-03-14T14:56:38;6.15;;;5.28;;
60665;SDS011;59128;44.642;21.188;2023-03-14T14:59:05;9.38;;;6.65;;
60665;SDS011;59128;44.642;21.188;2023-03-14T15:01:33;7.65;;;5.47;;
60665;SDS011;59128;44.642;21.188;2023-03-14T15:03:59;9.20;;;6.82;;
60665;SDS011;59128;44.642;21.188;2023-03-14T15:06:28;7.40;;;5.78;;
60665;SDS011;59128;44.642;21.188;2023-03-14T15:08:54;9.32;;;6.57;;
60665;SDS011;59128;44.642;21.188;2023-03-14T15:11:21;8.38;;;6.07;;
60665;SDS011;59128;44.642;21.188;2023-03-14T15:13:48;7.50;;;6.43;;
60665;SDS011;59128;44.642;21.188;2023-03-14T15:16:32;10.10;;;6.40;;
60665;SDS011;59128;44.642;21.188;2023-03-14T15:18:59;12.15;;;7.90;;
60665;SDS011;59128;44.642;21.188;2023-03-14T15:21:26;10.30;;;7.85;;
60665;SDS011;59128;44.642;21.188;2023-03-14T15:23:53;12.90;;;8.15;;
60665;SDS011;59128;44.642;21.188;2023-03-14T15:26:20;12.63;;;9.30;;
60665;SDS011;59128;44.642;21.188;2023-03-14T15:28:47;11.32;;;7.90;;
60665;SDS011;59128;44.642;21.188;2023-03-14T15:31:14;15.70;;;10.18;;
60665;SDS011;59128;44.642;21.188;2023-03-14T15:33:40;14.25;;;10.18;;
60665;SDS011;59128;44.642;21.188;2023-03-14T15:36:10;14.68;;;10.15;;